<?xml version="1.0" encoding="UTF-8" standalone="no" ?>
<gpx xmlns="http://www.topografix.com/GPX/1/1" xmlns:xsi="http://www.w3.org/2001/XMLSchema-instance" xsi:schemaLocation="http://www.topografix.com/GPX/1/1 http://www.topografix.com/GPX/1/1/gpx.xsd" version="1.1" creator="VisuGPX - https://www.visugpx.com">
  <metadata>
    <name>UT53</name>
  </metadata>
  <trk>
    <name><![CDATA[UT53 Étape 7]]></name>
    <extensions>
      <line xmlns="http://www.topografix.com/GPX/gpx_style/0/2">
        <color>000088</color>
        <width>4</width>
      </line>
    </extensions>
    <trkseg>
      <trkpt lat="48.62308" lon="7.30371">
        <ele>492.32244151897</ele>
        <time>2021-06-15T18:26:57.000Z</time>
      </trkpt>
      <trkpt lat="48.62235" lon="7.30371">
        <ele>493.28608319096</ele>
        <time>2021-06-15T18:26:57.024Z</time>
      </trkpt>
      <trkpt lat="48.62204" lon="7.3035">
        <ele>497.46127188193</ele>
        <time>2021-06-15T18:26:57.060Z</time>
      </trkpt>
      <trkpt lat="48.62152" lon="7.30326">
        <ele>501.9032490525</ele>
        <time>2021-06-15T18:26:57.114Z</time>
      </trkpt>
      <trkpt lat="48.62118" lon="7.30284">
        <ele>507.77522632179</ele>
        <time>2021-06-15T18:26:57.182Z</time>
      </trkpt>
      <trkpt lat="48.62052" lon="7.30152">
        <ele>516.6901030251</ele>
        <time>2021-06-15T18:26:57.287Z</time>
      </trkpt>
      <trkpt lat="48.62016" lon="7.3006">
        <ele>525.92484586411</ele>
        <time>2021-06-15T18:26:57.416Z</time>
      </trkpt>
      <trkpt lat="48.62" lon="7.3">
        <ele>535.42238902151</ele>
        <time>2021-06-15T18:26:57.559Z</time>
      </trkpt>
      <trkpt lat="48.61971" lon="7.29944">
        <ele>545.03963121465</ele>
        <time>2021-06-15T18:26:57.718Z</time>
      </trkpt>
      <trkpt lat="48.61937" lon="7.29906">
        <ele>555.53608282882</ele>
        <time>2021-06-15T18:26:57.891Z</time>
      </trkpt>
      <trkpt lat="48.61887" lon="7.29892">
        <ele>566.48978235567</ele>
        <time>2021-06-15T18:26:58.081Z</time>
      </trkpt>
      <trkpt lat="48.61832" lon="7.29834">
        <ele>578.88303742733</ele>
        <time>2021-06-15T18:26:58.293Z</time>
      </trkpt>
      <trkpt lat="48.61785" lon="7.29764">
        <ele>592.16287585193</ele>
        <time>2021-06-15T18:26:58.527Z</time>
      </trkpt>
      <trkpt lat="48.61732" lon="7.29661">
        <ele>606.70129107443</ele>
        <time>2021-06-15T18:26:58.790Z</time>
      </trkpt>
      <trkpt lat="48.61686" lon="7.29528">
        <ele>622.41896834994</ele>
        <time>2021-06-15T18:26:59.086Z</time>
      </trkpt>
      <trkpt lat="48.61652" lon="7.29387">
        <ele>639.60608194531</ele>
        <time>2021-06-15T18:26:59.415Z</time>
      </trkpt>
      <trkpt lat="48.61609" lon="7.29262">
        <ele>658.11311122919</ele>
        <time>2021-06-15T18:26:59.776Z</time>
      </trkpt>
      <trkpt lat="48.61538" lon="7.29093">
        <ele>676.17682956488</ele>
        <time>2021-06-15T18:27:00.181Z</time>
      </trkpt>
      <trkpt lat="48.6149" lon="7.28941">
        <ele>696.41622477166</ele>
        <time>2021-06-15T18:27:00.623Z</time>
      </trkpt>
      <trkpt lat="48.6145" lon="7.2878">
        <ele>718.29835719814</ele>
        <time>2021-06-15T18:27:01.103Z</time>
      </trkpt>
      <trkpt lat="48.61414" lon="7.28683">
        <ele>739.09849123514</ele>
        <time>2021-06-15T18:27:01.608Z</time>
      </trkpt>
      <trkpt lat="48.61248" lon="7.2837">
        <ele>762.3224422104</ele>
        <time>2021-06-15T18:27:02.201Z</time>
      </trkpt>
      <trkpt lat="48.61178" lon="7.28287">
        <ele>783.29710223167</ele>
        <time>2021-06-15T18:27:02.824Z</time>
      </trkpt>
      <trkpt lat="48.60944" lon="7.28188">
        <ele>805.8961172714</ele>
        <time>2021-06-15T18:27:03.528Z</time>
      </trkpt>
      <trkpt lat="48.60816" lon="7.28175">
        <ele>826.09928201913</ele>
        <time>2021-06-15T18:27:04.275Z</time>
      </trkpt>
      <trkpt lat="48.60694" lon="7.28207">
        <ele>844.38789134245</ele>
        <time>2021-06-15T18:27:05.063Z</time>
      </trkpt>
      <trkpt lat="48.60587" lon="7.28254">
        <ele>860.89910724648</ele>
        <time>2021-06-15T18:27:05.888Z</time>
      </trkpt>
      <trkpt lat="48.60541" lon="7.28266">
        <ele>875.22686325642</ele>
        <time>2021-06-15T18:27:06.729Z</time>
      </trkpt>
      <trkpt lat="48.60521" lon="7.28317">
        <ele>887.50015405934</ele>
        <time>2021-06-15T18:27:07.583Z</time>
      </trkpt>
      <trkpt lat="48.60496" lon="7.28432">
        <ele>898.84783233448</ele>
        <time>2021-06-15T18:27:08.464Z</time>
      </trkpt>
      <trkpt lat="48.60491" lon="7.28593">
        <ele>915.9217583895</ele>
        <time>2021-06-15T18:27:09.381Z</time>
      </trkpt>
      <trkpt lat="48.60499" lon="7.28716">
        <ele>922.62946659154</ele>
        <time>2021-06-15T18:27:10.325Z</time>
      </trkpt>
      <trkpt lat="48.60495" lon="7.2877">
        <ele>927.92601241366</ele>
        <time>2021-06-15T18:27:11.281Z</time>
      </trkpt>
      <trkpt lat="48.6047" lon="7.28807">
        <ele>932.28579639564</ele>
        <time>2021-06-15T18:27:12.249Z</time>
      </trkpt>
      <trkpt lat="48.60352" lon="7.28811">
        <ele>937.84212965208</ele>
        <time>2021-06-15T18:27:13.256Z</time>
      </trkpt>
      <trkpt lat="48.60259" lon="7.2885">
        <ele>941.19396650222</ele>
        <time>2021-06-15T18:27:14.295Z</time>
      </trkpt>
      <trkpt lat="48.60201" lon="7.28863">
        <ele>944.29963777729</ele>
        <time>2021-06-15T18:27:15.354Z</time>
      </trkpt>
      <trkpt lat="48.60184" lon="7.28856">
        <ele>947.1588900368</ele>
        <time>2021-06-15T18:27:16.419Z</time>
      </trkpt>
      <trkpt lat="48.60139" lon="7.2887">
        <ele>949.0537450929</ele>
        <time>2021-06-15T18:27:17.499Z</time>
      </trkpt>
      <trkpt lat="48.60178" lon="7.28829">
        <ele>951.59104396512</ele>
        <time>2021-06-15T18:27:18.595Z</time>
      </trkpt>
      <trkpt lat="48.60129" lon="7.28811">
        <ele>953.10729440654</ele>
        <time>2021-06-15T18:27:19.707Z</time>
      </trkpt>
      <trkpt lat="48.60116" lon="7.28767">
        <ele>954.23222796623</ele>
        <time>2021-06-15T18:27:20.830Z</time>
      </trkpt>
      <trkpt lat="48.601" lon="7.28783">
        <ele>954.15262170012</ele>
        <time>2021-06-15T18:27:21.959Z</time>
      </trkpt>
      <trkpt lat="48.60091" lon="7.28768">
        <ele>953.93836572423</ele>
        <time>2021-06-15T18:27:23.093Z</time>
      </trkpt>
      <trkpt lat="48.60085" lon="7.28785">
        <ele>953.14500281551</ele>
        <time>2021-06-15T18:27:24.231Z</time>
      </trkpt>
      <trkpt lat="48.6006" lon="7.28791">
        <ele>951.71530990375</ele>
        <time>2021-06-15T18:27:25.377Z</time>
      </trkpt>
      <trkpt lat="48.60049" lon="7.28805">
        <ele>950.12048687085</ele>
        <time>2021-06-15T18:27:26.528Z</time>
      </trkpt>
      <trkpt lat="48.60021" lon="7.28783">
        <ele>948.04616935779</ele>
        <time>2021-06-15T18:27:27.690Z</time>
      </trkpt>
      <trkpt lat="48.5999" lon="7.2879">
        <ele>945.69748226178</ele>
        <time>2021-06-15T18:27:28.862Z</time>
      </trkpt>
      <trkpt lat="48.5992" lon="7.28836">
        <ele>942.95328226985</ele>
        <time>2021-06-15T18:27:30.060Z</time>
      </trkpt>
      <trkpt lat="48.59881" lon="7.28842">
        <ele>939.84376399989</ele>
        <time>2021-06-15T18:27:31.271Z</time>
      </trkpt>
      <trkpt lat="48.59829" lon="7.28824">
        <ele>936.4599116004</ele>
        <time>2021-06-15T18:27:32.500Z</time>
      </trkpt>
      <trkpt lat="48.59724" lon="7.28729">
        <ele>931.99506615057</ele>
        <time>2021-06-15T18:27:33.770Z</time>
      </trkpt>
      <trkpt lat="48.59578" lon="7.28584">
        <ele>927.47811940352</ele>
        <time>2021-06-15T18:27:35.098Z</time>
      </trkpt>
      <trkpt lat="48.59521" lon="7.28502">
        <ele>922.53548711045</ele>
        <time>2021-06-15T18:27:36.452Z</time>
      </trkpt>
      <trkpt lat="48.59435" lon="7.28355">
        <ele>917.26821172992</ele>
        <time>2021-06-15T18:27:37.850Z</time>
      </trkpt>
      <trkpt lat="48.5941" lon="7.28348">
        <ele>911.62467927996</ele>
        <time>2021-06-15T18:27:39.256Z</time>
      </trkpt>
      <trkpt lat="48.5938" lon="7.28365">
        <ele>904.87280611551</ele>
        <time>2021-06-15T18:27:40.673Z</time>
      </trkpt>
      <trkpt lat="48.59318" lon="7.28317">
        <ele>896.81268644416</ele>
        <time>2021-06-15T18:27:42.113Z</time>
      </trkpt>
      <trkpt lat="48.59299" lon="7.28277">
        <ele>888.96080052284</ele>
        <time>2021-06-15T18:27:43.564Z</time>
      </trkpt>
      <trkpt lat="48.59278" lon="7.28284">
        <ele>879.63631138522</ele>
        <time>2021-06-15T18:27:45.022Z</time>
      </trkpt>
      <trkpt lat="48.59232" lon="7.28249">
        <ele>869.74783249325</ele>
        <time>2021-06-15T18:27:46.497Z</time>
      </trkpt>
      <trkpt lat="48.59136" lon="7.28099">
        <ele>859.17710255279</ele>
        <time>2021-06-15T18:27:48.018Z</time>
      </trkpt>
      <trkpt lat="48.59037" lon="7.28055">
        <ele>846.80171604955</ele>
        <time>2021-06-15T18:27:49.574Z</time>
      </trkpt>
      <trkpt lat="48.58997" lon="7.28004">
        <ele>836.79003865068</ele>
        <time>2021-06-15T18:27:51.147Z</time>
      </trkpt>
      <trkpt lat="48.58946" lon="7.28021">
        <ele>824.97336757354</ele>
        <time>2021-06-15T18:27:52.738Z</time>
      </trkpt>
      <trkpt lat="48.5885" lon="7.28085">
        <ele>811.22274358885</ele>
        <time>2021-06-15T18:27:54.364Z</time>
      </trkpt>
      <trkpt lat="48.58757" lon="7.28124">
        <ele>798.63921332349</ele>
        <time>2021-06-15T18:27:56.022Z</time>
      </trkpt>
      <trkpt lat="48.58699" lon="7.28133">
        <ele>786.08070768146</ele>
        <time>2021-06-15T18:27:57.700Z</time>
      </trkpt>
      <trkpt lat="48.5868" lon="7.28126">
        <ele>774.38470332651</ele>
        <time>2021-06-15T18:27:59.384Z</time>
      </trkpt>
      <trkpt lat="48.58671" lon="7.28148">
        <ele>762.21239764068</ele>
        <time>2021-06-15T18:28:01.074Z</time>
      </trkpt>
      <trkpt lat="48.58593" lon="7.28198">
        <ele>747.82773492957</ele>
        <time>2021-06-15T18:28:02.792Z</time>
      </trkpt>
      <trkpt lat="48.58593" lon="7.28228">
        <ele>736.05812487992</ele>
        <time>2021-06-15T18:28:04.517Z</time>
      </trkpt>
      <trkpt lat="48.58618" lon="7.28269">
        <ele>724.85942745539</ele>
        <time>2021-06-15T18:28:06.254Z</time>
      </trkpt>
      <trkpt lat="48.58687" lon="7.28286">
        <ele>714.06707523851</ele>
        <time>2021-06-15T18:28:08.014Z</time>
      </trkpt>
      <trkpt lat="48.58773" lon="7.28348">
        <ele>701.57788209079</ele>
        <time>2021-06-15T18:28:09.806Z</time>
      </trkpt>
      <trkpt lat="48.58851" lon="7.28385">
        <ele>680.25814403753</ele>
        <time>2021-06-15T18:28:11.625Z</time>
      </trkpt>
      <trkpt lat="48.58878" lon="7.28443">
        <ele>668.84991363471</ele>
        <time>2021-06-15T18:28:13.460Z</time>
      </trkpt>
      <trkpt lat="48.58909" lon="7.28579">
        <ele>656.97765723829</ele>
        <time>2021-06-15T18:28:15.327Z</time>
      </trkpt>
      <trkpt lat="48.5891" lon="7.2863">
        <ele>647.26601662967</ele>
        <time>2021-06-15T18:28:17.205Z</time>
      </trkpt>
      <trkpt lat="48.58862" lon="7.28655">
        <ele>637.02425981533</ele>
        <time>2021-06-15T18:28:19.100Z</time>
      </trkpt>
      <trkpt lat="48.5882" lon="7.28624">
        <ele>627.38138918521</ele>
        <time>2021-06-15T18:28:21.011Z</time>
      </trkpt>
      <trkpt lat="48.58684" lon="7.28743">
        <ele>616.63442690387</ele>
        <time>2021-06-15T18:28:22.974Z</time>
      </trkpt>
      <trkpt lat="48.58653" lon="7.28825">
        <ele>608.05425037567</ele>
        <time>2021-06-15T18:28:24.958Z</time>
      </trkpt>
      <trkpt lat="48.58642" lon="7.28883">
        <ele>600.24816521912</ele>
        <time>2021-06-15T18:28:26.956Z</time>
      </trkpt>
      <trkpt lat="48.58497" lon="7.28882">
        <ele>591.33576906912</ele>
        <time>2021-06-15T18:28:29.002Z</time>
      </trkpt>
      <trkpt lat="48.58456" lon="7.28868">
        <ele>584.00125107997</ele>
        <time>2021-06-15T18:28:31.062Z</time>
      </trkpt>
      <trkpt lat="48.58422" lon="7.28883">
        <ele>577.6679683614</ele>
        <time>2021-06-15T18:28:33.134Z</time>
      </trkpt>
      <trkpt lat="48.5837" lon="7.28879">
        <ele>571.79718982525</ele>
        <time>2021-06-15T18:28:35.223Z</time>
      </trkpt>
      <trkpt lat="48.58319" lon="7.28903">
        <ele>566.31297670703</ele>
        <time>2021-06-15T18:28:37.330Z</time>
      </trkpt>
      <trkpt lat="48.58247" lon="7.28989">
        <ele>560.59176844116</ele>
        <time>2021-06-15T18:28:39.468Z</time>
      </trkpt>
      <trkpt lat="48.58189" lon="7.29005">
        <ele>555.58966068657</ele>
        <time>2021-06-15T18:28:41.625Z</time>
      </trkpt>
      <trkpt lat="48.58133" lon="7.29001">
        <ele>550.59669875208</ele>
        <time>2021-06-15T18:28:43.801Z</time>
      </trkpt>
      <trkpt lat="48.58123" lon="7.28978">
        <ele>546.31893791739</ele>
        <time>2021-06-15T18:28:45.983Z</time>
      </trkpt>
      <trkpt lat="48.58088" lon="7.2894">
        <ele>541.99637358014</ele>
        <time>2021-06-15T18:28:48.180Z</time>
      </trkpt>
      <trkpt lat="48.58095" lon="7.28865">
        <ele>538.08084476965</ele>
        <time>2021-06-15T18:28:50.393Z</time>
      </trkpt>
      <trkpt lat="48.5813" lon="7.28722">
        <ele>534.32412156195</ele>
        <time>2021-06-15T18:28:52.640Z</time>
      </trkpt>
      <trkpt lat="48.58141" lon="7.28633">
        <ele>531.00811998271</ele>
        <time>2021-06-15T18:28:54.907Z</time>
      </trkpt>
      <trkpt lat="48.5807" lon="7.28385">
        <ele>528.56831592709</ele>
        <time>2021-06-15T18:28:57.234Z</time>
      </trkpt>
      <trkpt lat="48.57964" lon="7.28332">
        <ele>524.12616504916</ele>
        <time>2021-06-15T18:28:59.598Z</time>
      </trkpt>
      <trkpt lat="48.57952" lon="7.28316">
        <ele>521.34081471049</ele>
        <time>2021-06-15T18:29:01.967Z</time>
      </trkpt>
      <trkpt lat="48.57941" lon="7.28281">
        <ele>518.95713467026</ele>
        <time>2021-06-15T18:29:04.345Z</time>
      </trkpt>
      <trkpt lat="48.57936" lon="7.28282">
        <ele>516.52515729552</ele>
        <time>2021-06-15T18:29:06.725Z</time>
      </trkpt>
      <trkpt lat="48.57935" lon="7.28255">
        <ele>514.80032577033</ele>
        <time>2021-06-15T18:29:09.111Z</time>
      </trkpt>
      <trkpt lat="48.57924" lon="7.28277">
        <ele>512.44454954333</ele>
        <time>2021-06-15T18:29:11.503Z</time>
      </trkpt>
      <trkpt lat="48.57909" lon="7.28289">
        <ele>510.10251287744</ele>
        <time>2021-06-15T18:29:13.901Z</time>
      </trkpt>
      <trkpt lat="48.579" lon="7.2833">
        <ele>507.86480686741</ele>
        <time>2021-06-15T18:29:16.308Z</time>
      </trkpt>
      <trkpt lat="48.57909" lon="7.28349">
        <ele>507.06930800041</ele>
        <time>2021-06-15T18:29:18.721Z</time>
      </trkpt>
      <trkpt lat="48.5793" lon="7.2836">
        <ele>507.4721434957</ele>
        <time>2021-06-15T18:29:21.141Z</time>
      </trkpt>
      <trkpt lat="48.57943" lon="7.28387">
        <ele>507.93287970607</ele>
        <time>2021-06-15T18:29:23.568Z</time>
      </trkpt>
      <trkpt lat="48.57989" lon="7.28437">
        <ele>509.89783900985</ele>
        <time>2021-06-15T18:29:26.014Z</time>
      </trkpt>
      <trkpt lat="48.58008" lon="7.28446">
        <ele>511.25674718273</ele>
        <time>2021-06-15T18:29:28.467Z</time>
      </trkpt>
      <trkpt lat="48.58009" lon="7.28469">
        <ele>512.417657618</ele>
        <time>2021-06-15T18:29:30.925Z</time>
      </trkpt>
      <trkpt lat="48.57931" lon="7.28479">
        <ele>512.64856537138</ele>
        <time>2021-06-15T18:29:33.409Z</time>
      </trkpt>
      <trkpt lat="48.57938" lon="7.28494">
        <ele>514.84928655908</ele>
        <time>2021-06-15T18:29:35.897Z</time>
      </trkpt>
      <trkpt lat="48.57926" lon="7.28518">
        <ele>517.22159895009</ele>
        <time>2021-06-15T18:29:38.392Z</time>
      </trkpt>
      <trkpt lat="48.57926" lon="7.28533">
        <ele>519.89400783749</ele>
        <time>2021-06-15T18:29:40.890Z</time>
      </trkpt>
      <trkpt lat="48.5791" lon="7.28547">
        <ele>522.55420424221</ele>
        <time>2021-06-15T18:29:43.394Z</time>
      </trkpt>
      <trkpt lat="48.57846" lon="7.28541">
        <ele>523.34762481975</ele>
        <time>2021-06-15T18:29:45.920Z</time>
      </trkpt>
      <trkpt lat="48.57829" lon="7.28578">
        <ele>526.07617677052</ele>
        <time>2021-06-15T18:29:48.456Z</time>
      </trkpt>
      <trkpt lat="48.57831" lon="7.28602">
        <ele>529.13687019146</ele>
        <time>2021-06-15T18:29:50.997Z</time>
      </trkpt>
      <trkpt lat="48.57821" lon="7.28663">
        <ele>533.05430837455</ele>
        <time>2021-06-15T18:29:53.552Z</time>
      </trkpt>
      <trkpt lat="48.57787" lon="7.28697">
        <ele>535.25192446782</ele>
        <time>2021-06-15T18:29:56.121Z</time>
      </trkpt>
      <trkpt lat="48.57736" lon="7.28719">
        <ele>536.47454127738</ele>
        <time>2021-06-15T18:29:58.708Z</time>
      </trkpt>
      <trkpt lat="48.57707" lon="7.2877">
        <ele>539.38024900985</ele>
        <time>2021-06-15T18:30:01.309Z</time>
      </trkpt>
      <trkpt lat="48.5766" lon="7.28795">
        <ele>539.95565268202</ele>
        <time>2021-06-15T18:30:03.927Z</time>
      </trkpt>
      <trkpt lat="48.57629" lon="7.28769">
        <ele>539.0428209382</ele>
        <time>2021-06-15T18:30:06.557Z</time>
      </trkpt>
      <trkpt lat="48.57559" lon="7.28754">
        <ele>537.39756160467</ele>
        <time>2021-06-15T18:30:09.210Z</time>
      </trkpt>
      <trkpt lat="48.57525" lon="7.2879">
        <ele>536.0577697901</ele>
        <time>2021-06-15T18:30:11.877Z</time>
      </trkpt>
      <trkpt lat="48.57483" lon="7.28811">
        <ele>532.83131272245</ele>
        <time>2021-06-15T18:30:14.559Z</time>
      </trkpt>
      <trkpt lat="48.57459" lon="7.28837">
        <ele>529.755493328</ele>
        <time>2021-06-15T18:30:17.251Z</time>
      </trkpt>
      <trkpt lat="48.57426" lon="7.28835">
        <ele>520.66524937834</ele>
        <time>2021-06-15T18:30:19.954Z</time>
      </trkpt>
      <trkpt lat="48.57403" lon="7.28854">
        <ele>515.117444935</ele>
        <time>2021-06-15T18:30:22.666Z</time>
      </trkpt>
      <trkpt lat="48.57425" lon="7.28812">
        <ele>509.29531581821</ele>
        <time>2021-06-15T18:30:25.390Z</time>
      </trkpt>
      <trkpt lat="48.57463" lon="7.28798">
        <ele>503.48475728179</ele>
        <time>2021-06-15T18:30:28.127Z</time>
      </trkpt>
      <trkpt lat="48.57489" lon="7.28755">
        <ele>495.88466393408</ele>
        <time>2021-06-15T18:30:30.877Z</time>
      </trkpt>
      <trkpt lat="48.57391" lon="7.28828">
        <ele>487.66835600071</ele>
        <time>2021-06-15T18:30:33.663Z</time>
      </trkpt>
      <trkpt lat="48.57368" lon="7.28906">
        <ele>479.36676710669</ele>
        <time>2021-06-15T18:30:36.468Z</time>
      </trkpt>
      <trkpt lat="48.57323" lon="7.28935">
        <ele>469.4392668744</ele>
        <time>2021-06-15T18:30:39.289Z</time>
      </trkpt>
      <trkpt lat="48.57266" lon="7.2895">
        <ele>459.898861048</ele>
        <time>2021-06-15T18:30:42.129Z</time>
      </trkpt>
      <trkpt lat="48.57228" lon="7.28987">
        <ele>449.55702659503</ele>
        <time>2021-06-15T18:30:44.984Z</time>
      </trkpt>
      <trkpt lat="48.57163" lon="7.2901">
        <ele>439.73327577618</ele>
        <time>2021-06-15T18:30:47.862Z</time>
      </trkpt>
      <trkpt lat="48.5711" lon="7.29045">
        <ele>429.62421555897</ele>
        <time>2021-06-15T18:30:50.759Z</time>
      </trkpt>
      <trkpt lat="48.57021" lon="7.29022">
        <ele>420.67519769163</ele>
        <time>2021-06-15T18:30:53.686Z</time>
      </trkpt>
      <trkpt lat="48.56963" lon="7.28989">
        <ele>411.99554747636</ele>
        <time>2021-06-15T18:30:56.634Z</time>
      </trkpt>
      <trkpt lat="48.56931" lon="7.29">
        <ele>403.87713153254</ele>
        <time>2021-06-15T18:30:59.593Z</time>
      </trkpt>
      <trkpt lat="48.56911" lon="7.28967">
        <ele>396.29818564077</ele>
        <time>2021-06-15T18:31:02.562Z</time>
      </trkpt>
      <trkpt lat="48.56905" lon="7.28873">
        <ele>388.59127703731</ele>
        <time>2021-06-15T18:31:05.552Z</time>
      </trkpt>
      <trkpt lat="48.56909" lon="7.28783">
        <ele>381.47077164679</ele>
        <time>2021-06-15T18:31:08.562Z</time>
      </trkpt>
      <trkpt lat="48.56926" lon="7.28728">
        <ele>375.30263561284</ele>
        <time>2021-06-15T18:31:11.585Z</time>
      </trkpt>
      <trkpt lat="48.56957" lon="7.28719">
        <ele>370.34137603882</ele>
        <time>2021-06-15T18:31:14.619Z</time>
      </trkpt>
      <trkpt lat="48.5697" lon="7.28637">
        <ele>364.59923995985</ele>
        <time>2021-06-15T18:31:17.671Z</time>
      </trkpt>
      <trkpt lat="48.5697" lon="7.28603">
        <ele>359.88440995892</ele>
        <time>2021-06-15T18:31:20.731Z</time>
      </trkpt>
      <trkpt lat="48.5696" lon="7.28585">
        <ele>356.17036863829</ele>
        <time>2021-06-15T18:31:23.796Z</time>
      </trkpt>
      <trkpt lat="48.56939" lon="7.28599">
        <ele>353.34867535614</ele>
        <time>2021-06-15T18:31:26.868Z</time>
      </trkpt>
      <trkpt lat="48.56913" lon="7.28639">
        <ele>351.40112403015</ele>
        <time>2021-06-15T18:31:29.953Z</time>
      </trkpt>
      <trkpt lat="48.56896" lon="7.28647">
        <ele>349.46456548509</ele>
        <time>2021-06-15T18:31:33.044Z</time>
      </trkpt>
      <trkpt lat="48.56773" lon="7.28845">
        <ele>347.54724796908</ele>
        <time>2021-06-15T18:31:36.195Z</time>
      </trkpt>
      <trkpt lat="48.56727" lon="7.28952">
        <ele>346.04215125367</ele>
        <time>2021-06-15T18:31:39.374Z</time>
      </trkpt>
      <trkpt lat="48.56709" lon="7.28935">
        <ele>345.40096199187</ele>
        <time>2021-06-15T18:31:42.560Z</time>
      </trkpt>
      <trkpt lat="48.56636" lon="7.29046">
        <ele>344.6574715521</ele>
        <time>2021-06-15T18:31:45.781Z</time>
      </trkpt>
      <trkpt lat="48.56592" lon="7.29175">
        <ele>343.02224709706</ele>
        <time>2021-06-15T18:31:49.034Z</time>
      </trkpt>
      <trkpt lat="48.56561" lon="7.29221">
        <ele>343.35639232628</ele>
        <time>2021-06-15T18:31:52.301Z</time>
      </trkpt>
      <trkpt lat="48.56523" lon="7.29338">
        <ele>342.79666236315</ele>
        <time>2021-06-15T18:31:55.597Z</time>
      </trkpt>
      <trkpt lat="48.56523" lon="7.29486">
        <ele>342.03747430094</ele>
        <time>2021-06-15T18:31:58.926Z</time>
      </trkpt>
      <trkpt lat="48.56491" lon="7.29624">
        <ele>343.2848230172</ele>
        <time>2021-06-15T18:32:02.287Z</time>
      </trkpt>
      <trkpt lat="48.56489" lon="7.29693">
        <ele>342.70498679617</ele>
        <time>2021-06-15T18:32:05.664Z</time>
      </trkpt>
      <trkpt lat="48.56494" lon="7.29749">
        <ele>341.62919872008</ele>
        <time>2021-06-15T18:32:09.053Z</time>
      </trkpt>
      <trkpt lat="48.56474" lon="7.29805">
        <ele>341.44233718889</ele>
        <time>2021-06-15T18:32:12.456Z</time>
      </trkpt>
      <trkpt lat="48.56428" lon="7.29901">
        <ele>341.5957167638</ele>
        <time>2021-06-15T18:32:15.885Z</time>
      </trkpt>
      <trkpt lat="48.564" lon="7.30018">
        <ele>342.20691894603</ele>
        <time>2021-06-15T18:32:19.342Z</time>
      </trkpt>
      <trkpt lat="48.56417" lon="7.30082">
        <ele>340.44094491453</ele>
        <time>2021-06-15T18:32:22.814Z</time>
      </trkpt>
      <trkpt lat="48.56424" lon="7.30171">
        <ele>339.53652822786</ele>
        <time>2021-06-15T18:32:26.306Z</time>
      </trkpt>
      <trkpt lat="48.56441" lon="7.30269">
        <ele>337.47462901303</ele>
        <time>2021-06-15T18:32:29.821Z</time>
      </trkpt>
      <trkpt lat="48.56454" lon="7.30331">
        <ele>335.37559374215</ele>
        <time>2021-06-15T18:32:33.350Z</time>
      </trkpt>
      <trkpt lat="48.56341" lon="7.30386">
        <ele>335.57444557584</ele>
        <time>2021-06-15T18:32:36.919Z</time>
      </trkpt>
      <trkpt lat="48.56298" lon="7.30435">
        <ele>331.83591518288</ele>
        <time>2021-06-15T18:32:40.506Z</time>
      </trkpt>
      <trkpt lat="48.56262" lon="7.30449">
        <ele>330.69586264616</ele>
        <time>2021-06-15T18:32:44.105Z</time>
      </trkpt>
      <trkpt lat="48.56209" lon="7.30489">
        <ele>329.90310634667</ele>
        <time>2021-06-15T18:32:47.724Z</time>
      </trkpt>
      <trkpt lat="48.56194" lon="7.3056">
        <ele>327.22718712912</ele>
        <time>2021-06-15T18:32:51.359Z</time>
      </trkpt>
      <trkpt lat="48.56142" lon="7.30599">
        <ele>326.10953553477</ele>
        <time>2021-06-15T18:32:55.014Z</time>
      </trkpt>
      <trkpt lat="48.56126" lon="7.30637">
        <ele>324.29072317604</ele>
        <time>2021-06-15T18:32:58.679Z</time>
      </trkpt>
      <trkpt lat="48.56104" lon="7.3064">
        <ele>323.27421455976</ele>
        <time>2021-06-15T18:33:02.351Z</time>
      </trkpt>
      <trkpt lat="48.56082" lon="7.30624">
        <ele>322.88398291499</ele>
        <time>2021-06-15T18:33:06.032Z</time>
      </trkpt>
      <trkpt lat="48.56002" lon="7.30705">
        <ele>321.29577414122</ele>
        <time>2021-06-15T18:33:09.745Z</time>
      </trkpt>
      <trkpt lat="48.55951" lon="7.30736">
        <ele>319.98593690004</ele>
        <time>2021-06-15T18:33:13.476Z</time>
      </trkpt>
      <trkpt lat="48.55954" lon="7.30778">
        <ele>319.11050508836</ele>
        <time>2021-06-15T18:33:17.216Z</time>
      </trkpt>
      <trkpt lat="48.55919" lon="7.30764">
        <ele>319.23887861057</ele>
        <time>2021-06-15T18:33:20.968Z</time>
      </trkpt>
      <trkpt lat="48.55881" lon="7.30795">
        <ele>319.51069876942</ele>
        <time>2021-06-15T18:33:24.735Z</time>
      </trkpt>
      <trkpt lat="48.55819" lon="7.30806">
        <ele>320.28457307055</ele>
        <time>2021-06-15T18:33:28.522Z</time>
      </trkpt>
      <trkpt lat="48.55776" lon="7.30847">
        <ele>319.61343552183</ele>
        <time>2021-06-15T18:33:32.326Z</time>
      </trkpt>
      <trkpt lat="48.55706" lon="7.30945">
        <ele>319.37939199003</ele>
        <time>2021-06-15T18:33:36.162Z</time>
      </trkpt>
      <trkpt lat="48.5562" lon="7.31036">
        <ele>319.18853619561</ele>
        <time>2021-06-15T18:33:40.033Z</time>
      </trkpt>
      <trkpt lat="48.55598" lon="7.31069">
        <ele>318.43070534546</ele>
        <time>2021-06-15T18:33:43.915Z</time>
      </trkpt>
      <trkpt lat="48.55551" lon="7.31048">
        <ele>319.30555778931</ele>
        <time>2021-06-15T18:33:47.813Z</time>
      </trkpt>
      <trkpt lat="48.55541" lon="7.31061">
        <ele>318.430386812</ele>
        <time>2021-06-15T18:33:51.715Z</time>
      </trkpt>
      <trkpt lat="48.55534" lon="7.3112">
        <ele>316.58445293641</ele>
        <time>2021-06-15T18:33:55.630Z</time>
      </trkpt>
      <trkpt lat="48.55493" lon="7.31168">
        <ele>315.35672921481</ele>
        <time>2021-06-15T18:33:59.563Z</time>
      </trkpt>
      <trkpt lat="48.55415" lon="7.31228">
        <ele>313.93008774455</ele>
        <time>2021-06-15T18:34:03.525Z</time>
      </trkpt>
      <trkpt lat="48.55244" lon="7.31434">
        <ele>313.06748137818</ele>
        <time>2021-06-15T18:34:07.560Z</time>
      </trkpt>
      <trkpt lat="48.5502" lon="7.31741">
        <ele>308.61367266477</ele>
        <time>2021-06-15T18:34:11.696Z</time>
      </trkpt>
      <trkpt lat="48.54962" lon="7.3179">
        <ele>306.53094346427</ele>
        <time>2021-06-15T18:34:15.854Z</time>
      </trkpt>
      <trkpt lat="48.5496" lon="7.31812">
        <ele>304.57507031574</ele>
        <time>2021-06-15T18:34:20.017Z</time>
      </trkpt>
      <trkpt lat="48.54952" lon="7.31856">
        <ele>302.46985390631</ele>
        <time>2021-06-15T18:34:24.190Z</time>
      </trkpt>
      <trkpt lat="48.5496" lon="7.31918">
        <ele>300.27790408199</ele>
        <time>2021-06-15T18:34:28.377Z</time>
      </trkpt>
      <trkpt lat="48.54989" lon="7.31967">
        <ele>298.68740945882</ele>
        <time>2021-06-15T18:34:32.579Z</time>
      </trkpt>
      <trkpt lat="48.54986" lon="7.32005">
        <ele>297.67762166515</ele>
        <time>2021-06-15T18:34:36.789Z</time>
      </trkpt>
      <trkpt lat="48.54957" lon="7.31946">
        <ele>297.28438314965</ele>
        <time>2021-06-15T18:34:41.015Z</time>
      </trkpt>
      <trkpt lat="48.54924" lon="7.31953">
        <ele>297.08018919545</ele>
        <time>2021-06-15T18:34:45.253Z</time>
      </trkpt>
      <trkpt lat="48.54905" lon="7.31982">
        <ele>297.15721951142</ele>
        <time>2021-06-15T18:34:49.500Z</time>
      </trkpt>
      <trkpt lat="48.5483" lon="7.31981">
        <ele>297.78037182435</ele>
        <time>2021-06-15T18:34:53.772Z</time>
      </trkpt>
      <trkpt lat="48.5474" lon="7.31888">
        <ele>298.64205648662</ele>
        <time>2021-06-15T18:34:58.080Z</time>
      </trkpt>
      <trkpt lat="48.54714" lon="7.31881">
        <ele>298.87969212279</ele>
        <time>2021-06-15T18:35:02.397Z</time>
      </trkpt>
      <trkpt lat="48.54652" lon="7.31879">
        <ele>299.36774904576</ele>
        <time>2021-06-15T18:35:06.735Z</time>
      </trkpt>
      <trkpt lat="48.54658" lon="7.31962">
        <ele>299.48900380876</ele>
        <time>2021-06-15T18:35:11.091Z</time>
      </trkpt>
      <trkpt lat="48.54681" lon="7.32027">
        <ele>299.20749506052</ele>
        <time>2021-06-15T18:35:15.463Z</time>
      </trkpt>
      <trkpt lat="48.54701" lon="7.32126">
        <ele>298.35284930468</ele>
        <time>2021-06-15T18:35:19.858Z</time>
      </trkpt>
      <trkpt lat="48.54753" lon="7.32265">
        <ele>296.95273361557</ele>
        <time>2021-06-15T18:35:24.289Z</time>
      </trkpt>
      <trkpt lat="48.54746" lon="7.32335">
        <ele>295.94028649743</ele>
        <time>2021-06-15T18:35:28.735Z</time>
      </trkpt>
      <trkpt lat="48.54729" lon="7.3239">
        <ele>295.02063486345</ele>
        <time>2021-06-15T18:35:33.195Z</time>
      </trkpt>
      <trkpt lat="48.54699" lon="7.32409">
        <ele>294.02993241467</ele>
        <time>2021-06-15T18:35:37.666Z</time>
      </trkpt>
      <trkpt lat="48.54662" lon="7.32425">
        <ele>293.67045835254</ele>
        <time>2021-06-15T18:35:42.149Z</time>
      </trkpt>
      <trkpt lat="48.54635" lon="7.32462">
        <ele>293.42118069</ele>
        <time>2021-06-15T18:35:46.645Z</time>
      </trkpt>
      <trkpt lat="48.54622" lon="7.32537">
        <ele>293.13680640098</ele>
        <time>2021-06-15T18:35:51.158Z</time>
      </trkpt>
      <trkpt lat="48.54581" lon="7.32595">
        <ele>293.42448451465</ele>
        <time>2021-06-15T18:35:55.690Z</time>
      </trkpt>
      <trkpt lat="48.54524" lon="7.32624">
        <ele>294.30743299276</ele>
        <time>2021-06-15T18:36:00.242Z</time>
      </trkpt>
      <trkpt lat="48.5448" lon="7.32608">
        <ele>295.05816433964</ele>
        <time>2021-06-15T18:36:04.809Z</time>
      </trkpt>
      <trkpt lat="48.54441" lon="7.32549">
        <ele>296.36128140726</ele>
        <time>2021-06-15T18:36:09.394Z</time>
      </trkpt>
      <trkpt lat="48.54433" lon="7.3249">
        <ele>297.44738103801</ele>
        <time>2021-06-15T18:36:13.993Z</time>
      </trkpt>
      <trkpt lat="48.54414" lon="7.32483">
        <ele>298.10303395979</ele>
        <time>2021-06-15T18:36:18.598Z</time>
      </trkpt>
      <trkpt lat="48.54345" lon="7.32652">
        <ele>298.30932029677</ele>
        <time>2021-06-15T18:36:23.247Z</time>
      </trkpt>
      <trkpt lat="48.54304" lon="7.32646">
        <ele>299.68803927974</ele>
        <time>2021-06-15T18:36:27.910Z</time>
      </trkpt>
      <trkpt lat="48.5417" lon="7.32537">
        <ele>301.19374034654</ele>
        <time>2021-06-15T18:36:32.624Z</time>
      </trkpt>
      <trkpt lat="48.53995" lon="7.32534">
        <ele>301.46895415549</ele>
        <time>2021-06-15T18:36:37.396Z</time>
      </trkpt>
      <trkpt lat="48.53948" lon="7.32479">
        <ele>302.13396407457</ele>
        <time>2021-06-15T18:36:42.188Z</time>
      </trkpt>
      <trkpt lat="48.53924" lon="7.32416">
        <ele>302.54138704278</ele>
        <time>2021-06-15T18:36:46.996Z</time>
      </trkpt>
      <trkpt lat="48.53923" lon="7.32355">
        <ele>303.03256867022</ele>
        <time>2021-06-15T18:36:51.817Z</time>
      </trkpt>
      <trkpt lat="48.53904" lon="7.32341">
        <ele>303.18310103473</ele>
        <time>2021-06-15T18:36:56.645Z</time>
      </trkpt>
      <trkpt lat="48.53855" lon="7.3234">
        <ele>303.22873840258</ele>
        <time>2021-06-15T18:37:01.490Z</time>
      </trkpt>
      <trkpt lat="48.53828" lon="7.32333">
        <ele>303.23916507262</ele>
        <time>2021-06-15T18:37:06.344Z</time>
      </trkpt>
      <trkpt lat="48.53743" lon="7.32359">
        <ele>302.63260089052</ele>
        <time>2021-06-15T18:37:11.227Z</time>
      </trkpt>
      <trkpt lat="48.53658" lon="7.32372">
        <ele>300.82159078222</ele>
        <time>2021-06-15T18:37:16.138Z</time>
      </trkpt>
      <trkpt lat="48.53613" lon="7.32358">
        <ele>298.60862896888</ele>
        <time>2021-06-15T18:37:21.065Z</time>
      </trkpt>
      <trkpt lat="48.53544" lon="7.32382">
        <ele>296.3702033108</ele>
        <time>2021-06-15T18:37:26.015Z</time>
      </trkpt>
      <trkpt lat="48.53506" lon="7.32393">
        <ele>293.26664885998</ele>
        <time>2021-06-15T18:37:30.978Z</time>
      </trkpt>
      <trkpt lat="48.53448" lon="7.32436">
        <ele>289.15017681699</ele>
        <time>2021-06-15T18:37:35.963Z</time>
      </trkpt>
      <trkpt lat="48.53405" lon="7.32526">
        <ele>285.13641123297</ele>
        <time>2021-06-15T18:37:40.972Z</time>
      </trkpt>
      <trkpt lat="48.53374" lon="7.32547">
        <ele>281.54096232533</ele>
        <time>2021-06-15T18:37:45.993Z</time>
      </trkpt>
      <trkpt lat="48.5326" lon="7.32582">
        <ele>277.51215430901</ele>
        <time>2021-06-15T18:37:51.053Z</time>
      </trkpt>
      <trkpt lat="48.53182" lon="7.32593">
        <ele>274.04019457014</ele>
        <time>2021-06-15T18:37:56.139Z</time>
      </trkpt>
      <trkpt lat="48.53128" lon="7.3257">
        <ele>271.07789380147</ele>
        <time>2021-06-15T18:38:01.243Z</time>
      </trkpt>
      <trkpt lat="48.53106" lon="7.32533">
        <ele>268.267860718</ele>
        <time>2021-06-15T18:38:06.358Z</time>
      </trkpt>
      <trkpt lat="48.53092" lon="7.32443">
        <ele>265.54293146666</ele>
        <time>2021-06-15T18:38:11.494Z</time>
      </trkpt>
      <trkpt lat="48.53071" lon="7.32372">
        <ele>262.70226103995</ele>
        <time>2021-06-15T18:38:16.647Z</time>
      </trkpt>
      <trkpt lat="48.53045" lon="7.32329">
        <ele>260.10161181132</ele>
        <time>2021-06-15T18:38:21.813Z</time>
      </trkpt>
      <trkpt lat="48.52998" lon="7.32302">
        <ele>257.38705966568</ele>
        <time>2021-06-15T18:38:26.996Z</time>
      </trkpt>
      <trkpt lat="48.52974" lon="7.32311">
        <ele>254.84312696105</ele>
        <time>2021-06-15T18:38:32.187Z</time>
      </trkpt>
      <trkpt lat="48.52931" lon="7.32351">
        <ele>252.60927235381</ele>
        <time>2021-06-15T18:38:37.395Z</time>
      </trkpt>
      <trkpt lat="48.52912" lon="7.32342">
        <ele>250.96557889979</ele>
        <time>2021-06-15T18:38:42.610Z</time>
      </trkpt>
      <trkpt lat="48.52877" lon="7.32295">
        <ele>249.47502506778</ele>
        <time>2021-06-15T18:38:47.840Z</time>
      </trkpt>
      <trkpt lat="48.52848" lon="7.32287">
        <ele>247.91439844856</ele>
        <time>2021-06-15T18:38:53.080Z</time>
      </trkpt>
      <trkpt lat="48.52801" lon="7.32279">
        <ele>246.31283525096</ele>
        <time>2021-06-15T18:38:58.336Z</time>
      </trkpt>
      <trkpt lat="48.52807" lon="7.32245">
        <ele>246.00529267116</ele>
        <time>2021-06-15T18:39:03.600Z</time>
      </trkpt>
      <trkpt lat="48.52788" lon="7.32136">
        <ele>245.78922832145</ele>
        <time>2021-06-15T18:39:08.889Z</time>
      </trkpt>
    </trkseg>
  </trk>
</gpx>